Time;durP1;ratioP1;P1;durP2;ratioP2;P2;SDS_P1;SDS_P2;PMS_P1;PMS_P2;Temp;Humidity;BMP_temperature;BMP_pressure;BME280_temperature;BME280_humidity;BME280_pressure;Samples;Min_cycle;Max_cycle;Signal;HPM_P1;HPM_P2
2022/03/01 00:00:22;;;;;;;9.50;4.90;;;;;;;-0.06;100.00;60802.16;5114234;28;20437;-73
2022/03/01 00:02:54;;;;;;;10.47;5.20;;;;;;;0.10;100.00;60819.09;5113589;28;20510;-73
2022/03/01 00:05:21;;;;;;;9.20;4.93;;;;;;;0.13;100.00;60822.28;5114823;28;20433;-76
2022/03/01 00:07:49;;;;;;;10.83;5.47;;;;;;;-0.20;100.00;60784.81;5114877;28;20472;-75
2022/03/01 00:10:18;;;;;;;11.10;5.73;;;;;;;-0.55;100.00;60752.75;5113570;28;20512;-75
2022/03/01 00:12:53;;;;;;;9.53;5.10;;;;;;;-0.08;100.00;60797.53;5113540;28;20475;-74
2022/03/01 00:15:23;;;;;;;19.67;7.40;;;;;;;-0.93;100.00;60713.59;5113964;28;20433;-73
2022/03/01 00:17:51;;;;;;;25.03;10.33;;;;;;;0.10;100.00;60816.59;5113605;28;20480;-76
2022/03/01 00:20:19;;;;;;;21.53;9.53;;;;;;;0.08;100.00;60817.00;5113462;28;20436;-75
2022/03/01 00:22:46;;;;;;;23.93;8.60;;;;;;;0.15;100.00;60821.91;5113479;28;20440;-74
2022/03/01 00:25:13;;;;;;;16.73;8.07;;;;;;;-0.01;100.00;60804.94;5113369;28;20440;-74
2022/03/01 00:27:43;;;;;;;17.13;7.30;;;;;;;0.03;100.00;60813.66;5113220;28;20458;-76
2022/03/01 00:30:15;;;;;;;15.17;7.57;;;;;;;-0.13;100.00;60792.22;5113114;28;20449;-75
2022/03/01 00:32:45;;;;;;;19.13;8.57;;;;;;;-0.26;100.00;60780.97;5113495;28;20537;-74
2022/03/01 00:35:12;;;;;;;18.97;8.77;;;;;;;-1.43;100.00;60660.69;5113197;28;20819;-76
2022/03/01 00:37:40;;;;;;;12.57;6.00;;;;;;;-1.74;100.00;60622.91;5113429;28;20432;-75
2022/03/01 00:40:09;;;;;;;12.40;6.00;;;;;;;-2.45;100.00;60558.38;5112574;28;20452;-74
2022/03/01 00:42:36;;;;;;;10.00;5.87;;;;;;;-0.70;100.00;60736.88;5113033;28;20441;-75
2022/03/01 00:45:04;;;;;;;12.73;6.07;;;;;;;-0.92;100.00;60709.66;5113298;28;20435;-73
2022/03/01 00:47:33;;;;;;;11.10;5.53;;;;;;;-0.63;100.00;60744.28;5113718;28;20429;-74
2022/03/01 00:50:01;;;;;;;14.17;6.53;;;;;;;-0.38;100.00;60768.78;5113028;28;20474;-75
2022/03/01 00:52:30;;;;;;;11.87;5.70;;;;;;;-0.33;100.00;60774.09;5112834;28;20476;-76
2022/03/01 00:54:58;;;;;;;9.13;5.00;;;;;;;-0.33;100.00;60776.59;5112153;28;20453;-74
2022/03/01 00:57:27;;;;;;;8.43;4.87;;;;;;;-1.85;100.00;60616.78;5112158;28;20990;-72
2022/03/01 00:59:54;;;;;;;9.10;4.63;;;;;;;-0.90;100.00;60716.75;5112499;28;20502;-75
2022/03/01 01:02:21;;;;;;;13.70;5.60;;;;;;;-0.59;100.00;60749.06;5112635;28;20441;-72
2022/03/01 01:04:54;;;;;;;10.97;5.63;;;;;;;-0.62;100.00;60742.84;5112623;28;20530;-74
2022/03/01 01:07:25;;;;;;;8.37;5.13;;;;;;;-0.58;100.00;60749.59;5112492;28;20437;-75
2022/03/01 01:09:53;;;;;;;8.50;5.00;;;;;;;-1.93;100.00;60607.81;5112836;28;20452;-75
2022/03/01 01:12:21;;;;;;;8.37;4.87;;;;;;;-0.50;100.00;60753.06;5112262;28;20846;-74
2022/03/01 01:14:48;;;;;;;8.57;5.00;;;;;;;-0.61;100.00;60746.41;5094204;28;20433;-74
2022/03/01 01:17:17;;;;;;;7.93;4.17;;;;;;;-0.82;100.00;60724.19;5112353;28;20845;-75
2022/03/01 01:19:45;;;;;;;6.83;4.30;;;;;;;-0.84;100.00;60719.56;5113262;28;20437;-75
2022/03/01 01:24:58;;;;;;;6.77;4.37;;;;;;;-0.96;100.00;60707.91;5112863;28;20431;-74
2022/03/01 01:27:25;;;;;;;6.13;3.90;;;;;;;-1.01;100.00;60704.59;5111316;28;20453;-75
2022/03/01 01:29:53;;;;;;;7.83;4.60;;;;;;;-2.17;100.00;60577.47;5112675;28;20444;-73
2022/03/01 01:32:21;;;;;;;8.53;4.50;;;;;;;-1.17;100.00;60683.22;5112243;28;20530;-74
2022/03/01 01:34:48;;;;;;;6.60;3.50;;;;;;;-3.00;100.00;60493.34;5112544;28;20516;-75
2022/03/01 01:37:20;;;;;;;5.87;3.60;;;;;;;-1.18;100.00;60687.13;5094351;28;20468;-75
2022/03/01 01:39:47;;;;;;;5.25;3.25;;;;;;;-1.25;100.00;60679.22;5112503;28;20501;-74
2022/03/01 01:42:14;;;;;;;4.13;2.83;;;;;;;-2.43;100.00;60555.50;5111901;28;20203;-75
2022/03/01 01:44:45;;;;;;;6.93;3.30;;;;;;;-1.52;100.00;60645.63;5112161;28;20502;-75
2022/03/01 01:47:13;;;;;;;7.40;3.77;;;;;;;-1.73;100.00;60624.50;5112121;28;20445;-74
2022/03/01 01:49:42;;;;;;;9.00;4.77;;;;;;;-1.57;100.00;60645.88;5112214;28;20441;-72
2022/03/01 01:52:11;;;;;;;6.60;3.97;;;;;;;-1.53;100.00;60645.13;5112212;28;20477;-74
2022/03/01 01:54:40;;;;;;;6.77;3.07;;;;;;;-1.68;100.00;60633.72;5112279;28;20210;-75
2022/03/01 01:57:36;;;;;;;8.47;4.20;;;;;;;-1.63;100.00;60634.56;5112787;28;20523;-72
2022/03/01 02:00:08;;;;;;;9.13;4.27;;;;;;;-2.64;100.00;60531.34;5114249;28;20460;-73
2022/03/01 02:02:36;;;;;;;9.27;4.13;;;;;;;-1.89;100.00;60612.06;5114140;28;20441;-74
2022/03/01 02:05:04;;;;;;;8.13;4.23;;;;;;;-2.93;100.00;60508.19;5112185;28;20206;-75
2022/03/01 02:07:32;;;;;;;10.03;3.87;;;;;;;-1.76;100.00;60620.78;5111715;28;20452;-73
2022/03/01 02:10:01;;;;;;;8.50;4.40;;;;;;;-1.68;100.00;60631.75;5111819;28;20432;-73
2022/03/01 02:12:29;;;;;;;6.43;3.92;;;;;;;-1.93;100.00;60600.84;5112588;28;20487;-76
2022/03/01 02:14:57;;;;;;;5.77;3.50;;;;;;;-2.10;100.00;60589.84;5111600;28;20210;-73
2022/03/01 02:17:27;;;;;;;7.50;3.17;;;;;;;-1.78;100.00;60623.69;5111221;28;20913;-75
2022/03/01 02:19:57;;;;;;;5.95;2.65;;;;;;;-1.89;100.00;60609.56;5111861;28;20565;-72
2022/03/01 02:22:33;;;;;;;6.90;3.47;;;;;;;-2.58;100.00;60537.16;5111707;28;20661;-74
2022/03/01 02:25:03;;;;;;;7.30;3.80;;;;;;;-2.65;100.00;60532.25;5111796;28;20244;-75
2022/03/01 02:27:30;;;;;;;8.50;4.20;;;;;;;-2.06;100.00;60594.06;5112052;28;20429;-74
2022/03/01 02:29:59;;;;;;;7.70;3.75;;;;;;;-2.01;100.00;60599.38;5112229;28;20199;-72
2022/03/01 02:32:36;;;;;;;10.50;4.17;;;;;;;-2.05;100.00;60592.66;5111733;28;20219;-73
2022/03/01 02:35:05;;;;;;;10.43;4.47;;;;;;;-2.06;100.00;60594.06;5111345;28;20444;-73
2022/03/01 02:37:36;;;;;;;9.38;3.97;;;;;;;-3.68;100.00;60424.06;5112572;28;20494;-75
2022/03/01 02:40:06;;;;;;;8.10;2.67;;;;;;;-3.37;100.00;60456.22;5114163;28;20676;-73
2022/03/01 02:42:38;;;;;;;8.30;3.53;;;;;;;-2.26;100.00;60572.94;5115229;28;20670;-72
2022/03/01 02:45:08;;;;;;;6.43;3.73;;;;;;;-2.20;100.00;60581.78;5114928;28;20517;-72
2022/03/01 02:47:36;;;;;;;6.70;3.60;;;;;;;-2.24;100.00;60570.06;5115155;28;20448;-76
2022/03/01 02:50:03;;;;;;;9.77;4.32;;;;;;;-2.08;100.00;60591.97;5115299;28;20575;-75
2022/03/01 02:52:33;;;;;;;6.47;3.63;;;;;;;-2.03;100.00;60592.25;5115505;28;20222;-74
2022/03/01 02:55:01;;;;;;;11.13;4.15;;;;;;;-3.32;100.00;60457.06;5114661;28;20203;-74
2022/03/01 02:57:28;;;;;;;7.13;3.05;;;;;;;-2.23;100.00;60576.63;5115205;28;20191;-73
2022/03/01 02:59:59;;;;;;;5.25;3.40;;;;;;;-2.11;100.00;60591.28;5114678;28;20207;-74
2022/03/01 03:02:28;;;;;;;6.17;3.93;;;;;;;-2.13;100.00;60587.19;5115906;28;20205;-75
2022/03/01 03:04:56;;;;;;;6.43;3.33;;;;;;;-3.00;100.00;60495.81;5115079;28;20523;-73
2022/03/01 03:07:23;;;;;;;6.57;3.70;;;;;;;-2.28;100.00;60568.31;5115205;28;20428;-75
2022/03/01 03:09:50;;;;;;;6.43;3.50;;;;;;;-2.28;100.00;60568.84;5114964;28;20502;-74
2022/03/01 03:12:23;;;;;;;4.23;2.77;;;;;;;-2.14;100.00;60583.13;5114545;28;20215;-74
2022/03/01 03:14:54;;;;;;;3.15;1.75;;;;;;;-2.33;100.00;60563.06;5096881;28;20468;-75
2022/03/01 03:17:23;;;;;;;5.90;3.17;;;;;;;-2.75;100.00;60521.69;5115240;28;20227;-75
2022/03/01 03:19:51;;;;;;;40.87;14.63;;;;;;;-2.27;100.00;60566.91;5114491;28;20437;-75
2022/03/01 03:22:20;;;;;;;13.13;5.88;;;;;;;-2.20;100.00;60579.28;5114531;28;20958;-76
2022/03/01 03:24:47;;;;;;;12.73;5.83;;;;;;;-2.14;100.00;60580.63;5114056;28;20195;-74
2022/03/01 03:27:14;;;;;;;7.28;4.05;;;;;;;-2.04;100.00;60596.19;5114438;28;20445;-73
2022/03/01 03:29:45;;;;;;;7.23;3.63;;;;;;;-3.07;100.00;60493.41;5115112;28;20203;-73
2022/03/01 03:32:12;;;;;;;6.20;4.00;;;;;;;-1.95;100.00;60600.72;5114507;28;20425;-74
2022/03/01 03:34:40;;;;;;;8.83;5.23;;;;;;;-2.33;100.00;60560.56;5114323;28;21018;-74
2022/03/01 03:37:07;;;;;;;19.47;8.33;;;;;;;-2.10;100.00;60589.84;5114259;28;20502;-75
2022/03/01 03:39:35;;;;;;;7.72;3.90;;;;;;;-2.55;100.00;60542.31;5114248;28;20437;-75
2022/03/01 03:42:03;;;;;;;8.70;5.00;;;;;;;-4.07;100.00;60387.88;5114433;28;20190;-73
2022/03/01 03:44:30;;;;;;;8.10;3.55;;;;;;;-4.25;100.00;60363.94;5113784;28;20566;-76
2022/03/01 03:46:59;;;;;;;5.07;3.15;;;;;;;-2.46;100.00;60546.81;5114471;28;20195;-73
2022/03/01 03:49:27;;;;;;;8.23;4.40;;;;;;;-2.29;100.00;60570.28;5113718;28;20628;-73
2022/03/01 03:51:56;;;;;;;8.17;4.10;;;;;;;-2.23;100.00;60573.63;5113322;28;20203;-74
2022/03/01 03:54:23;;;;;;;9.63;3.57;;;;;;;-2.40;100.00;60558.13;5095848;28;21006;-74
2022/03/01 03:56:50;;;;;;;8.93;4.00;;;;;;;-2.21;100.00;60578.22;5113750;28;20448;-73
2022/03/01 03:59:21;;;;;;;11.77;5.07;;;;;;;-2.15;100.00;60579.59;5095788;28;20199;-73
2022/03/01 04:01:51;;;;;;;6.27;4.20;;;;;;;-1.98;100.00;60597.53;5113558;28;20433;-76
2022/03/01 04:04:19;;;;;;;7.80;4.20;;;;;;;-3.55;100.00;60432.78;5095680;28;20519;-74
2022/03/01 04:06:47;;;;;;;6.18;3.40;;;;;;;-2.07;100.00;60590.53;5113793;28;20440;-76
2022/03/01 04:09:14;;;;;;;6.00;3.33;;;;;;;-2.09;100.00;60588.94;5114152;28;20191;-74
2022/03/01 04:11:41;;;;;;;5.53;3.23;;;;;;;-3.46;100.00;60444.78;5095466;28;20929;-73
2022/03/01 04:14:08;;;;;;;5.40;3.30;;;;;;;-2.26;100.00;60572.94;5113535;28;20481;-73
2022/03/01 04:16:35;;;;;;;7.47;3.87;;;;;;;-2.22;100.00;60575.19;5113056;28;20448;-73
2022/03/01 04:19:03;;;;;;;6.73;2.87;;;;;;;-4.06;100.00;60381.47;5113101;28;20563;-74
2022/03/01 04:21:32;;;;;;;5.82;3.25;;;;;;;-2.17;100.00;60579.97;5113374;28;20790;-76
2022/03/01 04:24:01;;;;;;;8.02;3.72;;;;;;;-2.26;100.00;60567.94;5113814;28;20218;-76
2022/03/01 04:26:28;;;;;;;5.82;3.20;;;;;;;-4.52;100.00;60343.97;5113354;28;20209;-75
2022/03/01 04:29:03;;;;;;;5.95;3.47;;;;;;;-2.40;100.00;60553.69;5095828;28;20238;-74
2022/03/01 04:31:32;;;;;;;5.93;3.08;;;;;;;-2.78;100.00;60519.06;5113128;28;20657;-73
2022/03/01 04:34:01;;;;;;;4.80;3.30;;;;;;;-2.61;100.00;60531.50;5112850;28;20226;-75
2022/03/01 04:36:30;;;;;;;13.20;6.77;;;;;;;-2.63;100.00;60529.91;5114013;28;20195;-72
2022/03/01 04:39:00;;;;;;;16.42;8.45;;;;;;;-2.50;100.00;60543.13;5109995;28;20497;-74
2022/03/01 04:41:29;;;;;;;16.73;8.70;;;;;;;-2.55;100.00;60544.78;5113825;28;20201;-76
2022/03/01 04:43:56;;;;;;;17.43;8.87;;;;;;;-2.39;100.00;60561.69;5095022;28;20532;-74
2022/03/01 04:46:23;;;;;;;16.20;8.70;;;;;;;-2.95;100.00;60501.09;5094736;28;20531;-74
2022/03/01 04:48:51;;;;;;;18.30;8.48;;;;;;;-2.84;100.00;60512.72;5112791;28;20700;-75
2022/03/01 04:51:21;;;;;;;15.85;8.27;;;;;;;-2.91;100.00;60500.34;5112652;28;20203;-74
2022/03/01 04:53:57;;;;;;;19.15;10.32;;;;;;;-3.04;100.00;60491.06;5112934;28;20276;-74
2022/03/01 04:56:30;;;;;;;82.43;37.50;;;;;;;-2.68;100.00;60524.09;5112827;28;20222;-74
2022/03/01 04:58:57;;;;;;;102.93;43.67;;;;;;;-3.46;100.00;60447.28;5112856;28;20441;-75
2022/03/01 05:01:26;;;;;;;153.20;53.73;;;;;;;-2.87;100.00;60502.06;5111454;28;20445;-73
2022/03/01 05:03:53;;;;;;;94.23;37.77;;;;;;;-3.91;100.00;60400.31;5112555;28;20546;-74
2022/03/01 05:06:20;;;;;;;334.15;123.35;;;;;;;-2.96;100.00;60500.06;5112604;28;20437;-76
2022/03/01 05:08:47;;;;;;;403.27;164.05;;;;;;;-2.88;100.00;60508.50;5112570;28;20203;-73
2022/03/01 05:11:14;;;;;;;175.20;64.47;;;;;;;-3.98;100.00;60392.41;5112203;28;20219;-73
2022/03/01 05:13:44;;;;;;;56.77;22.60;;;;;;;-3.90;100.00;60398.34;5094164;28;20563;-74
2022/03/01 05:16:10;;;;;;;26.98;12.63;;;;;;;-3.04;100.00;60486.63;5113067;28;20475;-73
2022/03/01 05:18:38;;;;;;;14.03;6.70;;;;;;;-3.49;100.00;60444.09;5112662;28;20699;-73
2022/03/01 05:21:05;;;;;;;12.73;6.30;;;;;;;-3.64;100.00;60428.78;5112026;28;20437;-75
2022/03/01 05:23:32;;;;;;;10.13;4.60;;;;;;;-3.50;100.00;60443.06;5112180;28;20199;-75
2022/03/01 05:26:00;;;;;;;10.23;4.20;;;;;;;-4.60;100.00;60323.09;5112608;28;20199;-74
2022/03/01 05:28:31;;;;;;;14.43;4.60;;;;;;;-3.24;100.00;60468.00;5112131;28;20191;-75
2022/03/01 05:31:01;;;;;;;5.13;2.38;;;;;;;-3.33;100.00;60460.97;5113046;28;20613;-73
2022/03/01 05:33:28;;;;;;;8.43;4.03;;;;;;;-3.37;100.00;60454.28;5112054;28;20230;-73
2022/03/01 05:35:55;;;;;;;5.60;3.25;;;;;;;-3.48;100.00;60443.19;5094096;28;20764;-76
2022/03/01 05:38:22;;;;;;;7.75;3.53;;;;;;;-3.55;100.00;60432.78;5111917;28;20203;-76
2022/03/01 05:40:52;;;;;;;5.03;3.42;;;;;;;-4.79;100.00;60303.09;5112596;28;20190;-75
2022/03/01 05:43:23;;;;;;;12.75;6.28;;;;;;;-3.36;100.00;60455.34;5112470;28;20198;-75
2022/03/01 05:45:53;;;;;;;11.70;6.68;;;;;;;-4.61;100.00;60332.00;5112396;28;20230;-72
2022/03/01 05:48:22;;;;;;;11.80;6.25;;;;;;;-2.91;100.00;60502.28;5112126;28;20260;-74
2022/03/01 05:50:51;;;;;;;12.77;6.68;;;;;;;-4.18;100.00;60366.34;5112462;28;20279;-73
2022/03/01 05:53:19;;;;;;;10.30;5.60;;;;;;;-2.70;100.00;60526.97;5111443;28;20654;-75
2022/03/01 05:55:46;;;;;;;16.25;7.93;;;;;;;-2.15;100.00;60579.59;5111877;28;20800;-72
2022/03/01 05:58:17;;;;;;;15.85;7.50;;;;;;;-1.43;100.00;60658.19;5111842;28;20712;-75
2022/03/01 06:00:45;;;;;;;13.20;6.60;;;;;;;-0.77;100.00;60726.97;5093857;28;20206;-72
2022/03/01 06:03:15;;;;;;;12.70;7.07;;;;;;;-0.68;100.00;60739.00;5111751;28;20238;-73
2022/03/01 06:05:45;;;;;;;9.85;5.45;;;;;;;-0.65;100.00;60737.16;5112100;28;20484;-76
2022/03/01 06:08:14;;;;;;;9.23;4.43;;;;;;;-0.77;100.00;60729.47;5111482;28;20206;-74
2022/03/01 06:10:40;;;;;;;8.20;4.47;;;;;;;-0.77;100.00;60724.47;5112255;28;20199;-73
2022/03/01 06:13:08;;;;;;;4.43;2.57;;;;;;;-1.14;100.00;60691.38;5112944;28;20467;-73
2022/03/01 06:15:35;;;;;;;6.03;3.17;;;;;;;-0.90;100.00;60716.22;5116148;28;20437;-74
2022/03/01 06:18:04;;;;;;;5.13;3.03;;;;;;;-0.92;100.00;60714.66;5115929;28;20555;-72
2022/03/01 06:20:32;;;;;;;5.87;3.63;;;;;;;-0.84;100.00;60717.06;5116404;28;20429;-75
2022/03/01 06:23:01;;;;;;;8.30;4.10;;;;;;;-0.82;100.00;60722.19;5116103;28;20501;-75
2022/03/01 06:25:28;;;;;;;6.67;3.77;;;;;;;-2.11;100.00;60581.81;5116012;28;20470;-75
2022/03/01 06:27:58;;;;;;;6.93;3.87;;;;;;;-1.07;100.00;60693.78;5115760;28;20441;-73
2022/03/01 06:30:26;;;;;;;5.83;3.80;;;;;;;-0.82;100.00;60724.69;5115626;28;20532;-73
2022/03/01 06:32:53;;;;;;;6.07;3.80;;;;;;;-0.88;100.00;60718.34;5116221;28;20443;-73
2022/03/01 06:35:20;;;;;;;6.90;4.47;;;;;;;-0.94;100.00;60710.03;5115617;28;20488;-74
2022/03/01 06:37:47;;;;;;;6.50;3.37;;;;;;;-0.58;100.00;60744.59;5115258;28;20448;-72
2022/03/01 06:40:16;;;;;;;6.97;4.03;;;;;;;-0.21;100.00;60786.25;5114891;28;20881;-72
2022/03/01 06:42:43;;;;;;;10.80;3.33;;;;;;;0.05;100.00;60813.81;5114931;28;20871;-72
2022/03/01 06:45:11;;;;;;;7.67;3.50;;;;;;;0.15;100.00;60826.91;5114994;28;21157;-74
2022/03/01 06:47:39;;;;;;;7.60;4.10;;;;;;;-1.47;100.00;60656.47;5114807;28;21012;-75
2022/03/01 06:50:07;;;;;;;7.57;4.40;;;;;;;-0.39;100.00;60770.22;5115175;28;20826;-73
2022/03/01 06:52:35;;;;;;;7.57;4.20;;;;;;;1.11;100.00;60927.63;5115354;28;20877;-73
2022/03/01 06:55:02;;;;;;;7.87;4.50;;;;;;;1.24;100.00;60936.94;5115908;28;20900;-74
2022/03/01 06:57:30;;;;;;;19.80;6.20;;;;;;;0.47;100.00;60860.81;5117787;28;20468;-73
2022/03/01 06:59:58;;;;;;;64.97;23.13;;;;;;;0.74;100.00;60881.41;5116537;28;20869;-73
2022/03/01 07:02:26;;;;;;;117.80;40.47;;;;;;;1.94;100.00;61015.69;5115157;28;20769;-72
2022/03/01 07:04:55;;;;;;;123.77;45.17;;;;;;;1.80;100.00;60998.31;5115224;28;20433;-73
2022/03/01 07:07:23;;;;;;;33.23;16.33;;;;;;;1.57;100.00;60976.44;5115404;28;20472;-73
2022/03/01 07:09:51;;;;;;;35.07;14.60;;;;;;;1.72;100.00;60987.31;5114291;28;20451;-73
2022/03/01 07:12:18;;;;;;;20.17;9.37;;;;;;;1.96;100.00;61012.25;5114490;28;20461;-73
2022/03/01 07:14:47;;;;;;;16.10;8.00;;;;;;;1.24;100.00;60938.91;5114691;28;20487;-75
2022/03/01 07:17:17;;;;;;;17.83;8.47;;;;;;;2.55;100.00;61077.44;5114306;28;20538;-76
2022/03/01 07:19:44;;;;;;;21.73;10.10;;;;;;;1.99;100.00;61021.00;5114430;28;20498;-73
2022/03/01 07:22:11;;;;;;;19.70;9.33;;;;;;;3.42;100.00;61174.41;5114490;28;20440;-75
2022/03/01 07:24:39;;;;;;;20.53;9.60;;;;;;;4.07;100.00;61241.03;5113821;28;21422;-74
2022/03/01 07:27:07;;;;;;;28.70;13.37;;;;;;;3.89;100.00;61221.88;5113809;28;20963;-75
2022/03/01 07:29:34;;;;;;;17.43;7.83;;;;;;;4.23;100.00;61252.47;5114485;28;20487;-74
2022/03/01 07:32:07;;;;;;;14.30;8.87;;;;;;;4.95;100.00;61333.66;5114538;28;20523;-73
2022/03/01 07:34:35;;;;;;;17.13;8.47;;;;;;;4.95;100.00;61333.66;5114867;28;20484;-76
2022/03/01 07:37:07;;;;;;;16.73;9.00;;;;;;;5.59;100.00;61401.84;5114064;28;20448;-73
2022/03/01 07:39:35;;;;;;;23.80;9.93;;;;;;;5.29;100.00;61369.88;5114523;28;20441;-75
2022/03/01 07:42:02;;;;;;;24.87;11.33;;;;;;;5.38;100.00;61378.94;5114512;28;20489;-76
2022/03/01 07:44:30;;;;;;;20.47;9.73;;;;;;;5.77;100.00;61418.50;5114615;28;20497;-77
2022/03/01 07:46:57;;;;;;;30.00;12.80;;;;;;;4.80;100.00;61317.69;5113952;28;20444;-74
2022/03/01 07:49:27;;;;;;;29.57;14.17;;;;;;;5.43;100.00;61379.75;5116244;28;20464;-73
2022/03/01 07:54:37;;;;;;;16.37;7.93;;;;;;;6.40;100.00;61482.13;5116824;28;20476;-75
2022/03/01 07:57:04;;;;;;;7.20;4.33;;;;;;;5.24;100.00;61362.03;5117774;28;20506;-76
2022/03/01 07:59:32;;;;;;;8.03;5.00;;;;;;;5.30;100.00;61370.94;5116199;28;20449;-72
2022/03/01 08:02:00;;;;;;;9.70;4.83;;;;;;;6.28;100.00;61471.84;5115564;28;20441;-74
2022/03/01 08:04:30;;;;;;;7.57;4.00;;;;;;;5.78;100.00;61417.03;5097092;28;20541;-74
2022/03/01 08:06:58;;;;;;;8.10;4.67;;;;;;;5.77;100.00;61417.97;5117333;28;20425;-74
2022/03/01 08:09:36;;;;;;;7.60;5.00;;;;;;;4.77;100.00;61309.44;5116867;28;20864;-75
2022/03/01 08:12:05;;;;;;;20.53;11.83;;;;;;;4.99;100.00;61340.97;5097683;28;20556;-73
2022/03/01 08:20:38;;;;;;;5.43;3.80;;;;;;;6.04;100.00;61448.78;5110625;28;20580;-77
2022/03/01 08:33:24;;;;;;;11.23;5.70;;;;;;;6.44;100.00;61489.44;5113695;28;20798;-75
2022/03/01 08:35:55;;;;;;;7.63;4.50;;;;;;;7.16;100.00;61563.22;5114081;28;20486;-75
2022/03/01 08:38:23;;;;;;;34.43;12.53;;;;;;;6.90;100.00;61538.00;5112633;28;20927;-74
2022/03/01 08:40:50;;;;;;;26.33;9.57;;;;;;;7.19;100.00;61565.88;5112690;28;21022;-74
2022/03/01 08:43:17;;;;;;;13.80;6.17;;;;;;;6.41;100.00;61483.16;5112998;28;20866;-74
2022/03/01 08:45:45;;;;;;;11.73;6.80;;;;;;;6.32;100.00;61476.63;5094486;28;20447;-75
2022/03/01 08:48:13;;;;;;;19.30;10.00;;;;;;;6.68;100.00;61511.97;5112633;28;20452;-72
2022/03/01 08:50:41;;;;;;;37.40;14.87;;;;;;;6.60;100.00;61503.97;5112535;28;20505;-74
2022/03/01 08:53:15;;;;;;;13.87;7.30;;;;;;;6.42;100.00;61489.31;5112811;28;20437;-74
2022/03/01 08:55:43;;;;;;;6.87;4.43;;;;;;;6.58;100.00;61506.88;5111829;28;20523;-74
2022/03/01 08:58:11;;;;;;;7.37;4.23;;;;;;;6.37;100.00;61476.38;5112606;28;20451;-75
2022/03/01 09:00:38;;;;;;;9.83;4.30;;;;;;;6.17;100.00;61460.09;5113197;28;20436;-74
2022/03/01 09:03:06;;;;;;;9.87;5.63;;;;;;;5.65;100.00;61400.66;5094701;28;20444;-74
2022/03/01 09:05:35;;;;;;;9.73;5.20;;;;;;;5.74;100.00;61417.81;5112671;28;20440;-75
2022/03/01 09:08:03;;;;;;;8.10;5.03;;;;;;;6.23;100.00;61463.97;5112767;28;20436;-75
2022/03/01 09:10:39;;;;;;;7.10;4.27;;;;;;;5.22;100.00;61359.88;5112635;28;20517;-76
2022/03/01 09:13:07;;;;;;;7.37;5.00;;;;;;;6.41;100.00;61483.16;5112631;28;20540;-74
2022/03/01 09:15:34;;;;;;;12.90;7.87;;;;;;;5.35;100.00;61371.22;5112118;28;20491;-75
2022/03/01 09:18:03;;;;;;;16.80;10.70;;;;;;;6.50;100.00;61492.78;5114167;28;20440;-75
2022/03/01 09:20:35;;;;;;;9.60;5.10;;;;;;;6.97;100.00;61545.44;5113409;28;20875;-74
2022/03/01 09:23:04;;;;;;;13.00;5.83;;;;;;;6.93;100.00;61541.19;5113639;28;20955;-75
2022/03/01 09:25:34;;;;;;;15.10;6.17;;;;;;;7.64;100.00;61619.53;5113234;28;20449;-75
2022/03/01 09:28:02;;;;;;;12.40;5.50;;;;;;;7.62;100.00;61609.78;5113790;28;20543;-74
2022/03/01 09:30:32;;;;;;;9.47;4.43;;;;;;;8.03;100.00;61658.09;5112729;28;20462;-76
2022/03/01 09:32:59;;;;;;;9.73;5.00;;;;;;;8.37;100.00;61693.94;5113286;28;20429;-75
2022/03/01 09:35:30;;;;;;;6.00;4.33;;;;;;;7.54;100.00;61608.31;5112589;28;20491;-76
2022/03/01 09:38:02;;;;;;;6.40;4.50;;;;;;;7.46;100.00;61600.31;5113789;28;20447;-75
2022/03/01 09:40:34;;;;;;;7.87;4.87;;;;;;;7.24;100.00;61576.81;5111482;28;20439;-77
2022/03/01 09:43:04;;;;;;;6.47;4.20;;;;;;;6.76;100.00;61520.53;5112590;28;20502;-76
2022/03/01 09:45:32;;;;;;;4.93;3.53;;;;;;;6.04;100.00;61451.81;5093904;28;20965;-75
2022/03/01 09:48:01;;;;;;;10.93;4.63;;;;;;;5.02;100.00;61343.63;5113105;28;20449;-77
2022/03/01 09:50:31;;;;;;;12.57;5.17;;;;;;;5.30;100.00;61367.88;5116688;28;20464;-74
2022/03/01 09:53:07;;;;;;;6.73;4.73;;;;;;;5.48;100.00;61385.06;5116707;28;20839;-74
2022/03/01 09:55:35;;;;;;;12.90;6.60;;;;;;;4.94;100.00;61327.53;5116159;28;21010;-75
2022/03/01 09:58:04;;;;;;;6.00;4.73;;;;;;;4.03;100.00;61234.25;5116167;28;20460;-75
2022/03/01 10:00:31;;;;;;;11.20;5.17;;;;;;;4.57;100.00;61290.69;5118660;28;20951;-76
2022/03/01 10:03:00;;;;;;;11.43;7.13;;;;;;;3.76;100.00;61205.53;5116116;28;20971;-73
2022/03/01 10:05:38;;;;;;;28.47;14.33;;;;;;;4.18;100.00;61250.22;5097733;28;20532;-74
2022/03/01 10:08:11;;;;;;;42.67;15.03;;;;;;;4.11;100.00;61242.22;5115883;28;20501;-77
2022/03/01 10:10:43;;;;;;;17.97;7.60;;;;;;;4.02;100.00;61230.69;5099266;28;20467;-76
2022/03/01 10:13:27;;;;;;;7.80;4.20;;;;;;;4.01;100.00;61234.66;5116383;28;20468;-75
2022/03/01 10:16:05;;;;;;;8.53;4.87;;;;;;;2.75;100.00;61093.66;5116597;28;20568;-75
2022/03/01 10:18:40;;;;;;;12.53;5.33;;;;;;;4.51;100.00;61281.75;5116111;28;20852;-75
2022/03/01 10:21:17;;;;;;;10.17;4.80;;;;;;;4.25;100.00;61257.13;5097347;28;20879;-73
2022/03/01 10:23:48;;;;;;;8.43;5.07;;;;;;;3.30;100.00;61154.09;5117444;28;20511;-76
2022/03/01 10:26:18;;;;;;;8.37;4.97;;;;;;;4.34;100.00;61269.25;5117213;28;20858;-74
2022/03/01 10:28:56;;;;;;;6.47;4.73;;;;;;;4.28;100.00;61258.34;5116729;28;20453;-75
2022/03/01 10:31:25;;;;;;;89.77;21.00;;;;;;;3.87;100.00;61219.22;5116865;28;20938;-74
2022/03/01 10:34:00;;;;;;;20.67;9.80;;;;;;;4.83;100.00;61318.88;5116520;28;20523;-74
2022/03/01 10:36:32;;;;;;;10.27;5.67;;;;;;;4.59;100.00;61290.28;5115794;28;20557;-77
2022/03/01 10:39:06;;;;;;;9.63;5.63;;;;;;;5.19;100.00;61358.69;5115725;28;20443;-74
2022/03/01 10:41:38;;;;;;;10.93;6.30;;;;;;;5.55;100.00;61397.59;5115866;28;20456;-77
2022/03/01 10:44:15;;;;;;;10.43;6.17;;;;;;;5.68;100.00;61406.38;5097406;28;20501;-74
2022/03/01 10:46:49;;;;;;;8.37;5.63;;;;;;;5.86;100.00;61428.13;5115973;28;20447;-75
2022/03/01 10:49:18;;;;;;;7.83;5.03;;;;;;;5.60;100.00;61402.38;5116421;28;20448;-74
2022/03/01 10:51:51;;;;;;;10.40;6.03;;;;;;;4.55;100.00;61291.06;5115890;28;20879;-76
2022/03/01 10:54:30;;;;;;;14.00;7.87;;;;;;;5.64;100.00;61407.16;5114670;28;20445;-76
2022/03/01 10:56:58;;;;;;;12.07;6.30;;;;;;;5.17;100.00;61354.56;5117026;28;20499;-76
2022/03/01 10:59:34;;;;;;;10.70;6.23;;;;;;;5.15;100.00;61350.44;5114079;28;20436;-77
2022/03/01 11:04:48;;;;;;;8.83;5.33;;;;;;;5.08;100.00;61339.94;5113550;28;20437;-75
2022/03/01 11:07:19;;;;;;;8.57;5.20;;;;;;;5.31;100.00;61366.97;5116093;28;20510;-75
2022/03/01 11:09:47;;;;;;;7.83;5.17;;;;;;;3.77;100.00;61209.13;5116226;28;20425;-75
2022/03/01 11:12:22;;;;;;;8.77;4.57;;;;;;;5.34;100.00;61370.16;5115017;28;20639;-75
2022/03/01 11:15:11;;;;;;;12.83;6.40;;;;;;;5.28;100.00;61366.28;5115378;28;20429;-76
2022/03/01 11:17:57;;;;;;;11.63;5.37;;;;;;;4.67;100.00;61301.31;5114081;28;20461;-75
2022/03/01 11:20:30;;;;;;;6.77;3.60;;;;;;;4.46;100.00;61278.94;5114910;28;20524;-77
2022/03/01 11:23:00;;;;;;;7.40;3.93;;;;;;;5.06;100.00;61340.31;5114587;28;20434;-76
2022/03/01 11:25:29;;;;;;;14.33;6.20;;;;;;;3.53;100.00;61180.53;5115261;28;20461;-76
2022/03/01 11:28:05;;;;;;;12.43;5.53;;;;;;;4.70;100.00;61307.03;5114374;28;20457;-76
2022/03/01 11:30:36;;;;;;;9.03;5.80;;;;;;;4.83;100.00;61320.88;5114306;28;20498;-74
2022/03/01 11:33:08;;;;;;;8.07;4.20;;;;;;;4.19;100.00;61255.78;5115022;28;20413;-74
2022/03/01 11:35:38;;;;;;;12.07;5.57;;;;;;;5.08;100.00;61342.44;5114168;28;20482;-74
2022/03/01 11:38:14;;;;;;;11.83;8.13;;;;;;;5.23;100.00;61363.50;5114166;28;20445;-74
2022/03/01 11:40:43;;;;;;;9.70;5.80;;;;;;;5.31;100.00;61368.94;5114466;28;20465;-75
2022/03/01 11:43:13;;;;;;;7.33;5.70;;;;;;;3.94;100.00;61227.22;5114055;28;21008;-76
2022/03/01 11:45:48;;;;;;;7.30;4.37;;;;;;;5.17;100.00;61352.03;5114287;28;20448;-75
2022/03/01 11:48:20;;;;;;;13.07;3.90;;;;;;;5.23;100.00;61358.44;5116081;28;20432;-73
2022/03/01 11:50:50;;;;;;;10.97;6.13;;;;;;;3.84;100.00;61216.56;5114444;28;20494;-76
2022/03/01 11:53:22;;;;;;;12.07;5.17;;;;;;;5.31;100.00;61372.00;5114243;28;20425;-75
2022/03/01 11:55:52;;;;;;;10.40;4.50;;;;;;;5.25;100.00;61360.56;5114123;28;20489;-76
2022/03/01 12:01:18;;;;;;;9.27;5.73;;;;;;;4.54;100.00;61284.94;5113872;28;20433;-76